Delta Virtual Airport Information Service

Oranjestad Queen Beatrix International Airport

ICAO: TNCA Country: Aruba
Latitude: 12.5014 Longitude: -70.0152
Latest Arrival : ACA1294 (CYYZ-TNCA) Latest Departure : ACA1295 (TNCA-CYYZ)


WX CaptureLIVE
Data provided by noaa.gov | Fetched at 00:12:27

METAR : TNCA 120300Z 09016KT 9999 SCT018 27/23 Q1014 NOSIG

TAF : TNCA 120000Z 1200/1224 09020KT 9999 SCT020 PROB30 TEMPO 1206/1216 BKN014


Runway Data for TNCA
Data provided by openaviationdata.com

Runway ID Mag Var Hdg Length Elevation Surface ILS Freq ILS Id ILS Slope
11 -10 113° 9017 ft 62 ft Asphalt 108.7 IBE 3
29 -10 293° 9017 ft 62 ft Asphalt -- -- --

Oranjestad Queen Beatrix International Airport, Aruba
Use only for reference purposes



Not for navigational purposes.